createdAt,value
2022-08-31T00:01:58.464Z,10.70
2022-08-31T00:04:06.489Z,10.75
2022-08-31T00:06:08.276Z,10.85
2022-08-31T00:08:10.122Z,10.90
2022-08-31T00:10:18.344Z,11.52
2022-08-31T00:12:20.373Z,10.60
2022-08-31T00:14:22.135Z,11.25
2022-08-31T00:16:24.237Z,10.60
2022-08-31T00:18:26.038Z,10.73
2022-08-31T00:20:33.293Z,10.48
2022-08-31T00:22:36.256Z,11.23
2022-08-31T00:24:37.984Z,11.10
2022-08-31T00:26:40.407Z,10.20
2022-08-31T00:28:42.335Z,10.27
2022-08-31T00:30:45.271Z,10.27
2022-08-31T00:32:47.012Z,10.73
2022-08-31T00:34:49.744Z,10.17
2022-08-31T00:36:51.403Z,10.15
2022-08-31T00:38:54.222Z,9.85
2022-08-31T00:40:55.881Z,9.38
2022-08-31T00:42:59.360Z,9.57
2022-08-31T00:45:01.072Z,9.70
2022-08-31T00:47:02.899Z,9.88
2022-08-31T00:49:18.103Z,9.82
2022-08-31T00:51:19.901Z,10.32
2022-08-31T00:53:21.574Z,10.20
2022-08-31T00:55:27.999Z,10.50
2022-08-31T00:57:34.656Z,10.65
2022-08-31T00:59:37.301Z,11.13
2022-08-31T01:01:38.967Z,11.10
2022-08-31T01:03:41.200Z,10.80
2022-08-31T01:05:42.997Z,10.52
2022-08-31T01:07:47.786Z,10.45
2022-08-31T01:09:55.533Z,10.75
2022-08-31T01:11:57.970Z,9.70
2022-08-31T01:14:00.336Z,10.05
2022-08-31T01:16:07.267Z,10.70
2022-08-31T01:18:09.247Z,10.50
2022-08-31T01:20:25.855Z,11.20
2022-08-31T01:22:30.445Z,10.45
2022-08-31T01:24:33.081Z,10.60
2022-08-31T01:26:34.885Z,9.77
2022-08-31T01:28:37.085Z,10.10
2022-08-31T01:30:40.306Z,10.75
2022-08-31T01:32:42.100Z,9.95
2022-08-31T01:34:43.877Z,10.30
2022-08-31T01:36:48.017Z,10.20
2022-08-31T01:38:53.173Z,9.02
2022-08-31T01:40:57.840Z,10.38
2022-08-31T01:42:59.508Z,10.25
2022-08-31T01:45:01.276Z,10.27
2022-08-31T01:47:03.162Z,10.82
2022-08-31T01:49:04.968Z,10.10
2022-08-31T01:51:07.037Z,10.77
2022-08-31T01:53:09.482Z,11.27
2022-08-31T01:55:11.480Z,10.75
2022-08-31T01:57:15.716Z,10.93
2022-08-31T01:59:20.002Z,10.55
2022-08-31T02:01:34.371Z,10.60
2022-08-31T02:03:36.598Z,10.57
2022-08-31T02:05:38.861Z,10.98
2022-08-31T02:07:41.218Z,10.18
2022-08-31T02:09:42.970Z,10.07
2022-08-31T02:11:44.836Z,10.75
2022-08-31T02:13:46.619Z,9.98
2022-08-31T02:15:48.378Z,12.77
2022-08-31T02:17:50.111Z,12.15
2022-08-31T02:19:54.493Z,10.93
2022-08-31T02:21:56.373Z,12.05
2022-08-31T02:23:58.069Z,11.38
2022-08-31T02:26:00.002Z,12.57
2022-08-31T02:28:01.819Z,12.00
2022-08-31T02:30:10.936Z,12.20
2022-08-31T02:32:19.496Z,12.30
2022-08-31T02:34:22.080Z,11.93
2022-08-31T02:36:24.338Z,12.50
2022-08-31T02:38:27.435Z,12.30
2022-08-31T02:40:29.227Z,11.40
2022-08-31T02:42:33.011Z,11.55
2022-08-31T02:44:52.566Z,12.45
2022-08-31T02:46:54.428Z,12.75
2022-08-31T02:48:56.163Z,12.30
2022-08-31T02:51:04.756Z,12.88
2022-08-31T02:53:06.422Z,12.57
2022-08-31T02:55:08.118Z,12.07
2022-08-31T02:57:09.805Z,12.93
2022-08-31T02:59:11.481Z,12.38
2022-08-31T03:01:13.271Z,12.02
2022-08-31T03:03:15.666Z,12.23
2022-08-31T03:05:17.787Z,12.07
2022-08-31T03:07:19.533Z,12.52
2022-08-31T03:09:21.866Z,11.70
2022-08-31T03:11:23.607Z,11.93
2022-08-31T03:13:25.231Z,12.35
2022-08-31T03:15:28.704Z,12.68
2022-08-31T03:17:30.553Z,12.52
2022-08-31T03:19:32.173Z,13.45
2022-08-31T03:21:33.894Z,13.07
2022-08-31T03:23:36.367Z,13.57
2022-08-31T03:25:39.668Z,11.45
2022-08-31T03:29:43.262Z,12.27
2022-08-31T03:31:44.924Z,11.77
2022-08-31T03:33:46.549Z,11.10
2022-08-31T03:35:48.213Z,12.40
2022-08-31T03:37:49.884Z,11.23
2022-08-31T03:39:51.734Z,11.73
2022-08-31T03:41:53.402Z,11.40
2022-08-31T03:43:55.662Z,10.75
2022-08-31T03:45:57.391Z,11.68
2022-08-31T03:47:59.733Z,11.75
2022-08-31T03:50:04.021Z,11.45
2022-08-31T03:52:06.065Z,12.02
2022-08-31T03:54:08.476Z,11.45
2022-08-31T03:56:10.168Z,12.32
2022-08-31T03:58:12.224Z,12.88
2022-08-31T04:00:14.370Z,13.13
2022-08-31T04:02:16.053Z,13.73
2022-08-31T04:04:17.810Z,14.05
2022-08-31T04:06:19.670Z,14.68
2022-08-31T04:08:21.947Z,14.73
2022-08-31T04:10:23.668Z,14.95
2022-08-31T04:12:25.371Z,14.95
2022-08-31T04:14:27.056Z,16.38
2022-08-31T04:16:28.771Z,16.38
2022-08-31T04:18:30.441Z,16.02
2022-08-31T04:20:40.674Z,16.80
2022-08-31T04:22:42.374Z,16.05
2022-08-31T04:24:44.027Z,16.17
2022-08-31T04:26:45.753Z,16.60
2022-08-31T04:28:47.948Z,15.77
2022-08-31T04:30:50.403Z,16.02
2022-08-31T04:32:53.377Z,18.20
2022-08-31T04:34:56.527Z,16.58
2022-08-31T04:36:58.425Z,16.63
2022-08-31T04:39:02.225Z,16.05
2022-08-31T04:41:09.945Z,17.00
2022-08-31T04:43:11.758Z,15.63
2022-08-31T04:45:14.279Z,15.25
2022-08-31T04:47:15.977Z,15.32
2022-08-31T04:49:17.926Z,14.63
2022-08-31T04:51:28.693Z,14.05
2022-08-31T04:53:30.458Z,14.55
2022-08-31T04:55:32.335Z,13.48
2022-08-31T04:57:35.644Z,11.98
2022-08-31T04:59:37.385Z,13.40
2022-08-31T05:01:43.664Z,12.48
2022-08-31T05:03:45.490Z,13.57
2022-08-31T05:05:49.196Z,12.20
2022-08-31T05:09:53.260Z,14.05
2022-08-31T05:11:55.671Z,13.25
2022-08-31T05:13:58.798Z,13.05
2022-08-31T05:16:00.546Z,12.75
2022-08-31T05:18:02.641Z,11.93
2022-08-31T05:20:06.016Z,12.38
2022-08-31T05:22:07.675Z,12.50
2022-08-31T05:24:12.137Z,12.23
2022-08-31T05:26:26.450Z,12.02
2022-08-31T05:28:28.411Z,12.82
2022-08-31T05:30:30.184Z,13.40
2022-08-31T05:32:31.959Z,12.05
2022-08-31T05:34:35.747Z,13.55
2022-08-31T05:36:37.458Z,13.00
2022-08-31T05:38:40.057Z,12.93
2022-08-31T05:40:41.722Z,14.20
2022-08-31T05:42:43.489Z,12.65
2022-08-31T05:44:45.124Z,12.43
2022-08-31T05:46:54.795Z,12.10
2022-08-31T05:49:06.789Z,12.70
2022-08-31T05:51:12.657Z,12.23
2022-08-31T05:53:15.201Z,13.10
2022-08-31T05:55:17.190Z,12.05
2022-08-31T05:57:20.006Z,12.60
2022-08-31T05:59:23.172Z,13.05
2022-08-31T06:01:37.800Z,12.57
2022-08-31T06:03:39.480Z,11.80
2022-08-31T06:05:42.150Z,11.43
2022-08-31T06:07:44.388Z,11.77
2022-08-31T06:09:46.088Z,11.98
2022-08-31T06:11:47.691Z,10.93
2022-08-31T06:13:51.370Z,10.80
2022-08-31T06:15:53.637Z,10.57
2022-08-31T06:17:55.545Z,11.45
2022-08-31T06:19:58.142Z,11.85
2022-08-31T06:21:59.806Z,11.20
2022-08-31T06:24:04.354Z,11.10
2022-08-31T06:26:07.530Z,10.23
2022-08-31T06:28:09.268Z,10.23
2022-08-31T06:30:11.351Z,11.07
2022-08-31T06:32:14.709Z,11.13
2022-08-31T06:34:18.661Z,10.82
2022-08-31T06:36:21.705Z,11.35
2022-08-31T06:38:23.429Z,12.40
2022-08-31T06:40:29.087Z,12.15
2022-08-31T06:42:30.861Z,13.15
2022-08-31T06:44:32.817Z,11.88
2022-08-31T06:46:36.169Z,12.30
2022-08-31T06:48:38.204Z,12.20
2022-08-31T06:50:41.680Z,13.45
2022-08-31T06:52:43.601Z,12.73
2022-08-31T06:54:45.211Z,11.27
2022-08-31T06:56:47.195Z,11.60
2022-08-31T06:58:53.775Z,11.35
2022-08-31T07:00:58.832Z,11.00
2022-08-31T07:03:21.095Z,11.10
2022-08-31T07:05:24.742Z,10.23
2022-08-31T07:07:26.561Z,10.07
2022-08-31T07:09:28.482Z,10.23
2022-08-31T07:11:40.989Z,9.55
2022-08-31T07:13:45.840Z,10.70
2022-08-31T07:15:47.596Z,10.23
2022-08-31T07:17:49.886Z,10.13
2022-08-31T07:19:51.917Z,11.27
2022-08-31T07:21:56.447Z,11.23
2022-08-31T07:24:01.147Z,10.35
2022-08-31T07:26:07.893Z,10.68
2022-08-31T07:28:11.877Z,11.02
2022-08-31T07:30:13.860Z,10.57
2022-08-31T07:32:16.074Z,12.70
2022-08-31T07:34:26.179Z,10.98
2022-08-31T07:36:27.879Z,11.10
2022-08-31T07:38:48.331Z,10.40
2022-08-31T07:41:08.451Z,11.30
2022-08-31T07:43:10.701Z,9.43
2022-08-31T07:45:23.277Z,10.63
2022-08-31T07:47:29.167Z,12.35
2022-08-31T07:51:32.496Z,9.80
2022-08-31T07:53:41.561Z,10.82
2022-08-31T07:55:45.821Z,11.20
2022-08-31T07:57:47.679Z,9.27
2022-08-31T07:59:54.762Z,10.00
2022-08-31T08:01:56.703Z,9.40
2022-08-31T08:04:02.168Z,9.60
2022-08-31T08:06:06.373Z,9.73
2022-08-31T08:08:13.908Z,10.32
2022-08-31T08:10:21.465Z,10.10
2022-08-31T08:12:25.320Z,9.50
2022-08-31T08:14:30.190Z,9.38
2022-08-31T08:16:32.839Z,10.75
2022-08-31T08:18:34.989Z,12.45
2022-08-31T08:20:38.757Z,11.15
2022-08-31T08:22:53.974Z,9.48
2022-08-31T08:24:59.251Z,9.25
2022-08-31T08:27:01.121Z,9.85
2022-08-31T08:31:13.583Z,9.43
2022-08-31T08:33:15.556Z,8.95
2022-08-31T08:35:17.442Z,8.65
2022-08-31T08:37:31.051Z,8.98
2022-08-31T08:39:43.055Z,9.55
2022-08-31T08:41:47.069Z,8.90
2022-08-31T08:43:57.354Z,9.02
2022-08-31T08:46:15.211Z,8.30
2022-08-31T08:48:27.797Z,8.27
2022-08-31T08:50:31.179Z,9.23
2022-08-31T08:54:46.361Z,8.65
2022-08-31T08:56:49.207Z,7.80
2022-08-31T08:58:51.281Z,8.13
2022-08-31T09:00:54.753Z,9.20
2022-08-31T09:05:21.851Z,7.43
2022-08-31T09:07:56.547Z,8.02
2022-08-31T09:10:04.274Z,7.57
2022-08-31T09:12:20.867Z,8.38
2022-08-31T09:14:37.177Z,8.77
2022-08-31T09:17:01.298Z,7.90
2022-08-31T09:19:06.889Z,7.47
2022-08-31T09:21:31.101Z,6.95
2022-08-31T09:23:37.946Z,9.00
2022-08-31T09:25:52.196Z,8.35
2022-08-31T09:28:00.093Z,8.60
2022-08-31T09:30:03.172Z,8.13
2022-08-31T09:32:10.718Z,7.28
2022-08-31T09:34:31.520Z,8.25
2022-08-31T09:36:41.074Z,8.13
2022-08-31T09:38:47.148Z,7.63
2022-08-31T09:40:49.987Z,8.70
2022-08-31T09:43:10.925Z,7.85
2022-08-31T09:45:30.164Z,7.72
2022-08-31T09:47:51.618Z,7.90
2022-08-31T09:49:57.930Z,8.95
2022-08-31T09:52:45.139Z,8.73
2022-08-31T09:55:18.511Z,8.18
2022-08-31T09:57:48.860Z,9.23
2022-08-31T09:59:51.666Z,7.90
2022-08-31T10:01:54.193Z,8.30
2022-08-31T10:04:36.821Z,7.75
2022-08-31T10:07:14.310Z,8.45
2022-08-31T10:09:23.217Z,8.10
2022-08-31T10:11:29.323Z,7.82
2022-08-31T10:13:38.625Z,8.38
2022-08-31T10:15:54.938Z,7.72
2022-08-31T10:18:03.283Z,7.78
2022-08-31T10:20:16.657Z,7.72
2022-08-31T10:22:28.561Z,7.80
2022-08-31T10:24:38.981Z,7.93
2022-08-31T10:26:47.612Z,7.57
2022-08-31T10:28:52.595Z,7.43
2022-08-31T10:31:31.708Z,7.82
2022-08-31T10:34:02.293Z,7.65
2022-08-31T10:36:04.530Z,8.32
2022-08-31T10:38:21.389Z,7.65
2022-08-31T10:40:29.317Z,7.78
2022-08-31T10:42:38.423Z,7.53
2022-08-31T10:44:57.348Z,7.78
2022-08-31T10:47:02.938Z,8.57
2022-08-31T10:49:05.520Z,9.07
2022-08-31T10:51:23.304Z,8.77
2022-08-31T10:53:34.939Z,8.50
2022-08-31T10:56:14.265Z,9.10
2022-08-31T10:58:58.092Z,8.95
2022-08-31T11:01:29.400Z,7.28
2022-08-31T11:04:09.288Z,8.57
2022-08-31T11:06:25.276Z,8.60
2022-08-31T11:08:49.750Z,9.00
2022-08-31T11:10:53.692Z,9.10
2022-08-31T11:12:59.241Z,8.15
2022-08-31T11:15:16.276Z,8.98
2022-08-31T11:17:55.613Z,9.05
2022-08-31T11:20:28.279Z,9.80
2022-08-31T11:22:46.235Z,10.25
2022-08-31T11:24:56.251Z,9.38
2022-08-31T11:27:06.019Z,9.60
2022-08-31T11:29:46.656Z,9.57
2022-08-31T11:31:49.913Z,10.00
2022-08-31T11:34:25.794Z,9.18
2022-08-31T11:36:42.547Z,9.88
2022-08-31T11:38:54.568Z,9.65
2022-08-31T11:41:03.790Z,9.07
2022-08-31T11:43:06.278Z,9.00
2022-08-31T11:45:13.957Z,9.65
2022-08-31T11:47:27.966Z,9.18
2022-08-31T11:51:46.013Z,9.30
2022-08-31T11:53:52.906Z,8.85
2022-08-31T11:55:59.693Z,9.52
2022-08-31T11:58:07.285Z,10.02
2022-08-31T12:00:20.329Z,9.68
2022-08-31T12:02:23.192Z,9.43
2022-08-31T12:04:46.156Z,12.73
2022-08-31T12:06:51.069Z,11.05
2022-08-31T12:09:02.418Z,10.10
2022-08-31T12:11:18.653Z,10.43
2022-08-31T12:13:31.015Z,9.95
2022-08-31T12:16:01.355Z,8.85
2022-08-31T12:18:09.069Z,9.23
2022-08-31T12:20:29.526Z,9.57
2022-08-31T12:23:30.809Z,9.35
2022-08-31T12:25:36.451Z,9.65
2022-08-31T12:27:38.052Z,9.02
2022-08-31T12:29:41.188Z,9.95
2022-08-31T12:31:44.192Z,8.73
2022-08-31T12:33:54.414Z,8.82
2022-08-31T12:36:15.651Z,9.18
2022-08-31T12:38:19.981Z,8.73
2022-08-31T12:40:24.276Z,9.25
2022-08-31T12:42:27.020Z,8.90
2022-08-31T12:44:39.337Z,9.02
2022-08-31T12:46:49.659Z,9.05
2022-08-31T12:49:11.413Z,8.35
2022-08-31T12:51:34.183Z,8.90
2022-08-31T12:54:03.543Z,9.65
2022-08-31T12:56:14.015Z,9.68
2022-08-31T12:58:56.972Z,9.85
2022-08-31T13:01:09.479Z,8.93
2022-08-31T13:03:24.902Z,9.07
2022-08-31T13:05:32.540Z,9.23
2022-08-31T13:07:35.625Z,9.02
2022-08-31T13:09:37.882Z,9.98
2022-08-31T13:11:45.029Z,9.02
2022-08-31T13:13:46.687Z,8.93
2022-08-31T13:15:48.671Z,8.98
2022-08-31T13:17:50.809Z,8.93
2022-08-31T13:19:56.555Z,8.85
2022-08-31T13:22:05.338Z,8.95
2022-08-31T13:24:09.220Z,8.48
2022-08-31T13:26:25.067Z,8.82
2022-08-31T13:28:30.115Z,9.35
2022-08-31T13:30:34.316Z,8.63
2022-08-31T13:32:36.771Z,8.98
2022-08-31T13:34:44.207Z,8.00
2022-08-31T13:36:53.789Z,7.35
2022-08-31T13:38:56.102Z,8.32
2022-08-31T13:40:57.772Z,8.10
2022-08-31T13:43:00.601Z,7.30
2022-08-31T13:45:07.740Z,8.27
2022-08-31T13:47:35.176Z,7.75
2022-08-31T13:49:49.122Z,7.25
2022-08-31T13:51:50.949Z,7.28
2022-08-31T13:53:55.565Z,6.70
2022-08-31T13:55:58.335Z,6.45
2022-08-31T13:58:05.829Z,7.57
2022-08-31T14:00:36.883Z,6.93
2022-08-31T14:02:39.545Z,6.68
2022-08-31T14:04:44.323Z,7.13
2022-08-31T14:06:50.782Z,7.10
2022-08-31T14:09:05.183Z,6.90
2022-08-31T14:11:14.370Z,7.70
2022-08-31T14:13:20.916Z,7.28
2022-08-31T14:15:50.378Z,8.10
2022-08-31T14:20:33.827Z,7.75
2022-08-31T14:22:36.513Z,8.32
2022-08-31T14:24:42.652Z,8.18
2022-08-31T14:26:44.565Z,8.45
2022-08-31T14:28:49.706Z,7.88
2022-08-31T14:30:51.595Z,8.32
2022-08-31T14:32:54.154Z,8.88
2022-08-31T14:34:57.907Z,7.97
2022-08-31T14:37:19.958Z,7.95
2022-08-31T14:39:27.076Z,8.70
2022-08-31T14:41:31.318Z,9.07
2022-08-31T14:43:34.377Z,8.85
2022-08-31T14:45:37.627Z,9.88
2022-08-31T14:47:44.169Z,9.27
2022-08-31T14:49:46.134Z,9.38
2022-08-31T14:51:47.800Z,9.45
2022-08-31T14:53:51.896Z,8.73
2022-08-31T14:55:53.521Z,8.52
2022-08-31T14:58:08.357Z,9.65
2022-08-31T15:00:11.921Z,8.82
2022-08-31T15:04:18.597Z,8.63
2022-08-31T15:06:20.779Z,10.35
2022-08-31T15:08:28.349Z,9.80
2022-08-31T15:10:41.218Z,9.75
2022-08-31T15:12:43.089Z,9.70
2022-08-31T15:14:45.272Z,9.98
2022-08-31T15:16:48.743Z,9.50
2022-08-31T15:18:54.408Z,8.70
2022-08-31T15:20:56.152Z,8.82
2022-08-31T15:22:58.021Z,8.60
2022-08-31T15:24:59.920Z,9.65
2022-08-31T15:27:01.738Z,9.02
2022-08-31T15:29:05.038Z,9.68
2022-08-31T15:31:11.581Z,10.25
2022-08-31T15:33:13.600Z,9.88
2022-08-31T15:35:19.026Z,9.55
2022-08-31T15:37:21.713Z,9.05
2022-08-31T15:39:32.430Z,8.33
2022-08-31T15:41:37.268Z,8.50
2022-08-31T15:43:42.235Z,8.77
2022-08-31T15:45:44.842Z,9.15
2022-08-31T15:48:05.353Z,8.27
2022-08-31T15:50:07.711Z,8.38
2022-08-31T15:52:10.219Z,9.30
2022-08-31T15:54:22.258Z,8.70
2022-08-31T15:56:25.411Z,8.38
2022-08-31T15:58:31.827Z,8.68
2022-08-31T16:00:33.964Z,7.57
2022-08-31T16:02:36.058Z,8.48
2022-08-31T16:04:43.453Z,8.30
2022-08-31T16:06:45.583Z,8.63
2022-08-31T16:08:50.250Z,8.45
2022-08-31T16:10:52.085Z,8.25
2022-08-31T16:12:53.899Z,8.55
2022-08-31T16:14:55.534Z,8.65
2022-08-31T16:17:00.014Z,8.07
2022-08-31T16:19:05.381Z,7.75
2022-08-31T16:21:07.517Z,8.43
2022-08-31T16:23:09.178Z,8.52
2022-08-31T16:25:13.169Z,8.88
2022-08-31T16:27:16.397Z,8.55
2022-08-31T16:29:24.807Z,8.80
2022-08-31T16:31:27.743Z,8.82
2022-08-31T16:33:29.467Z,9.63
2022-08-31T16:35:31.133Z,9.38
2022-08-31T16:37:33.601Z,8.60
2022-08-31T16:39:43.090Z,9.88
2022-08-31T16:41:45.853Z,9.00
2022-08-31T16:44:03.444Z,9.85
2022-08-31T16:46:37.392Z,10.25
2022-08-31T16:50:54.266Z,10.43
2022-08-31T16:52:56.522Z,10.05
2022-08-31T16:54:58.149Z,9.93
2022-08-31T16:57:00.280Z,10.45
2022-08-31T16:59:02.234Z,9.65
2022-08-31T17:01:08.970Z,10.10
2022-08-31T17:03:10.726Z,10.27
2022-08-31T17:05:13.158Z,10.18
2022-08-31T17:07:16.625Z,10.23
2022-08-31T17:11:26.730Z,10.50
2022-08-31T17:13:28.751Z,10.25
2022-08-31T17:15:30.566Z,10.65
2022-08-31T17:17:33.133Z,9.55
2022-08-31T17:19:36.840Z,9.43
2022-08-31T17:21:49.732Z,9.90
2022-08-31T17:23:56.440Z,10.40
2022-08-31T17:25:58.162Z,10.40
2022-08-31T17:28:07.623Z,10.50
2022-08-31T17:30:09.951Z,10.48
2022-08-31T17:32:13.828Z,10.07
2022-08-31T17:34:18.644Z,10.27
2022-08-31T17:36:21.524Z,10.65
2022-08-31T17:38:24.217Z,10.60
2022-08-31T17:40:25.947Z,10.73
2022-08-31T17:42:28.398Z,11.20
2022-08-31T17:44:30.975Z,11.68
2022-08-31T17:46:33.292Z,12.73
2022-08-31T17:48:37.961Z,12.35
2022-08-31T17:50:43.527Z,12.10
2022-08-31T17:52:45.715Z,12.13
2022-08-31T17:54:47.627Z,13.10
2022-08-31T17:56:53.541Z,12.52
2022-08-31T17:58:55.509Z,13.52
2022-08-31T18:00:59.765Z,12.27
2022-08-31T18:03:01.451Z,13.85
2022-08-31T18:05:09.487Z,15.88
2022-08-31T18:07:13.968Z,14.55
2022-08-31T18:09:17.510Z,14.50
2022-08-31T18:13:24.261Z,14.77
2022-08-31T18:15:28.891Z,16.08
2022-08-31T18:17:30.599Z,14.20
2022-08-31T18:19:33.447Z,16.00
2022-08-31T18:21:35.114Z,15.48
2022-08-31T18:23:38.112Z,14.18
2022-08-31T18:25:40.919Z,13.82
2022-08-31T18:27:42.536Z,14.35
2022-08-31T18:29:45.141Z,14.48
2022-08-31T18:31:50.268Z,14.32
2022-08-31T18:33:52.253Z,12.88
2022-08-31T18:35:55.108Z,12.48
2022-08-31T18:37:58.061Z,13.02
2022-08-31T18:40:18.626Z,14.13
2022-08-31T18:42:40.149Z,14.93
2022-08-31T18:45:00.301Z,17.02
2022-08-31T18:47:05.987Z,17.35
2022-08-31T18:49:12.660Z,18.30
2022-08-31T18:51:17.697Z,17.20
2022-08-31T18:53:27.751Z,16.65
2022-08-31T18:55:31.808Z,16.88
2022-08-31T18:57:34.222Z,15.82
2022-08-31T18:59:48.533Z,16.08
2022-08-31T19:01:51.579Z,15.60
2022-08-31T19:03:53.349Z,14.35
2022-08-31T19:05:56.677Z,14.15
2022-08-31T19:08:00.694Z,14.75
2022-08-31T19:10:02.483Z,13.07
2022-08-31T19:12:05.044Z,13.93
2022-08-31T19:14:06.808Z,13.27
2022-08-31T19:16:15.585Z,12.05
2022-08-31T19:18:17.638Z,12.55
2022-08-31T19:20:19.383Z,11.77
2022-08-31T19:22:21.621Z,12.65
2022-08-31T19:24:23.889Z,11.80
2022-08-31T19:26:27.592Z,13.05
2022-08-31T19:28:29.207Z,12.30
2022-08-31T19:30:32.102Z,13.20
2022-08-31T19:32:34.179Z,12.75
2022-08-31T19:34:38.018Z,12.35
2022-08-31T19:36:41.723Z,12.10
2022-08-31T19:38:44.231Z,13.15
2022-08-31T19:40:46.581Z,13.38
2022-08-31T19:45:41.057Z,12.43
2022-08-31T19:47:38.590Z,12.27
2022-08-31T19:49:42.048Z,12.27
2022-08-31T19:51:56.166Z,12.60
2022-08-31T19:53:59.266Z,11.90
2022-08-31T19:56:01.606Z,11.95
2022-08-31T19:58:05.227Z,12.63
2022-08-31T20:00:10.267Z,12.13
2022-08-31T20:02:14.114Z,12.63
2022-08-31T20:04:17.191Z,13.45
2022-08-31T20:06:20.556Z,12.23
2022-08-31T20:08:22.220Z,11.98
2022-08-31T20:10:23.909Z,12.43
2022-08-31T20:12:31.887Z,12.95
2022-08-31T20:14:33.594Z,12.93
2022-08-31T20:16:41.765Z,13.15
2022-08-31T20:18:48.784Z,13.95
2022-08-31T20:20:51.024Z,13.10
2022-08-31T20:22:54.172Z,14.07
2022-08-31T20:24:55.818Z,14.10
2022-08-31T20:27:09.029Z,14.32
2022-08-31T20:29:13.809Z,12.30
2022-08-31T20:31:16.686Z,12.82
2022-08-31T20:33:19.012Z,11.82
2022-08-31T20:35:20.921Z,12.23
2022-08-31T20:37:24.660Z,12.77
2022-08-31T20:39:28.485Z,12.27
2022-08-31T20:41:32.212Z,11.68
2022-08-31T20:43:35.559Z,12.23
2022-08-31T20:45:38.617Z,11.85
2022-08-31T20:47:59.013Z,12.85
2022-08-31T20:50:02.500Z,12.52
2022-08-31T20:52:04.181Z,12.90
2022-08-31T20:54:06.306Z,12.60
2022-08-31T20:56:09.129Z,12.00
2022-08-31T20:58:10.844Z,12.68
2022-08-31T21:00:13.955Z,13.00
2022-08-31T21:02:16.741Z,11.52
2022-08-31T21:04:18.986Z,12.45
2022-08-31T21:06:25.419Z,11.30
2022-08-31T21:08:28.556Z,11.75
2022-08-31T21:10:37.468Z,11.70
2022-08-31T21:12:39.756Z,12.18
2022-08-31T21:14:45.567Z,10.85
2022-08-31T21:16:47.687Z,11.68
2022-08-31T21:18:49.624Z,10.73
2022-08-31T21:20:52.153Z,10.50
2022-08-31T21:22:53.957Z,11.43
2022-08-31T21:25:03.569Z,10.95
2022-08-31T21:27:08.075Z,10.60
2022-08-31T21:29:13.110Z,11.18
2022-08-31T21:31:27.633Z,10.85
2022-08-31T21:33:31.081Z,10.70
2022-08-31T21:35:32.767Z,10.30
2022-08-31T21:37:34.452Z,10.80
2022-08-31T21:39:37.039Z,10.90
2022-08-31T21:41:39.055Z,10.27
2022-08-31T21:43:40.753Z,10.77
2022-08-31T21:45:42.451Z,10.25
2022-08-31T21:47:44.079Z,10.40
2022-08-31T21:49:45.975Z,10.13
2022-08-31T21:51:52.792Z,9.57
2022-08-31T21:54:01.057Z,9.45
2022-08-31T21:56:04.064Z,9.73
2022-08-31T21:58:05.770Z,10.98
2022-08-31T22:00:14.080Z,10.40
2022-08-31T22:02:17.883Z,10.13
2022-08-31T22:04:21.075Z,9.35
2022-08-31T22:06:26.782Z,9.52
2022-08-31T22:08:29.541Z,10.40
2022-08-31T22:10:32.612Z,10.30
2022-08-31T22:12:34.344Z,10.02
2022-08-31T22:14:38.446Z,10.68
2022-08-31T22:16:41.028Z,11.07
2022-08-31T22:19:00.870Z,10.57
2022-08-31T22:21:05.220Z,10.85
2022-08-31T22:23:09.881Z,10.15
2022-08-31T22:25:12.169Z,9.95
2022-08-31T22:27:13.820Z,10.02
2022-08-31T22:29:23.760Z,10.02
2022-08-31T22:31:27.436Z,10.38
2022-08-31T22:33:29.455Z,10.15
2022-08-31T22:35:31.241Z,10.55
2022-08-31T22:37:35.290Z,10.07
2022-08-31T22:39:37.118Z,10.55
2022-08-31T22:41:41.851Z,10.68
2022-08-31T22:43:44.847Z,10.40
2022-08-31T22:45:48.670Z,10.95
2022-08-31T22:47:50.811Z,10.82
2022-08-31T22:49:52.491Z,10.45
2022-08-31T22:51:54.628Z,10.52
2022-08-31T22:53:56.727Z,11.75
2022-08-31T22:55:58.429Z,11.15
2022-08-31T22:58:00.023Z,12.45
2022-08-31T23:00:01.741Z,11.63
2022-08-31T23:02:04.564Z,12.95
2022-08-31T23:04:07.864Z,12.57
2022-08-31T23:06:12.347Z,12.57
2022-08-31T23:08:14.873Z,13.07
2022-08-31T23:12:20.512Z,13.10
2022-08-31T23:14:22.529Z,12.18
2022-08-31T23:16:37.167Z,12.23
2022-08-31T23:18:41.943Z,12.05
2022-08-31T23:20:43.553Z,12.48
2022-08-31T23:22:48.634Z,10.88
2022-08-31T23:24:51.907Z,11.98
2022-08-31T23:26:53.713Z,12.35
2022-08-31T23:28:59.099Z,11.50
2022-08-31T23:31:00.858Z,12.20
2022-08-31T23:33:02.678Z,11.55
2022-08-31T23:35:05.616Z,11.95
2022-08-31T23:37:09.101Z,12.40
2022-08-31T23:39:10.781Z,11.70
2022-08-31T23:41:13.737Z,12.68
2022-08-31T23:43:20.338Z,11.88
2022-08-31T23:45:22.090Z,11.85
2022-08-31T23:47:29.051Z,11.98
2022-08-31T23:49:30.939Z,11.98
2022-08-31T23:51:33.438Z,11.80
2022-08-31T23:53:35.704Z,12.57
2022-08-31T23:55:42.876Z,12.32
2022-08-31T23:57:47.590Z,11.57
2022-08-31T23:59:52.813Z,12.40
